Time;durP1;ratioP1;P1;durP2;ratioP2;P2;SDS_P1;SDS_P2;PMS_P1;PMS_P2;Temp;Humidity;BMP_temperature;BMP_pressure;BME280_temperature;BME280_humidity;BME280_pressure;Samples;Min_cycle;Max_cycle;Signal;HPM_P1;HPM_P2
2021/07/10 00:01:19;;;;;;;4.57;3.60;;;;;;;;;;4406279;32;20301;-56
2021/07/10 00:03:45;;;;;;;5.37;3.92;;;;;;;;;;4406255;32;20283;-56
2021/07/10 00:06:11;;;;;;;7.43;4.70;;;;;;;;;;4406134;32;20357;-56
2021/07/10 00:08:36;;;;;;;6.28;4.62;;;;;;;;;;4406237;32;20681;-56
2021/07/10 00:11:04;;;;;;;7.45;4.28;;;;;;;;;;4405876;32;20327;-55
2021/07/10 00:13:29;;;;;;;7.28;4.85;;;;;;;;;;4405723;32;20334;-56
2021/07/10 00:15:55;;;;;;;7.80;4.85;;;;;;;;;;4406022;32;20356;-56
2021/07/10 00:18:20;;;;;;;8.45;4.90;;;;;;;;;;4405197;32;20280;-54
2021/07/10 00:20:46;;;;;;;5.55;3.62;;;;;;;;;;4405796;32;20298;-54
2021/07/10 00:23:12;;;;;;;5.25;3.97;;;;;;;;;;4405617;32;20554;-55
2021/07/10 00:25:38;;;;;;;6.75;3.72;;;;;;;;;;4405860;32;20202;-55
2021/07/10 00:28:04;;;;;;;8.40;3.80;;;;;;;;;;4405511;32;20271;-55
2021/07/10 00:30:30;;;;;;;4.35;3.40;;;;;;;;;;4405615;32;20288;-56
2021/07/10 00:32:56;;;;;;;3.55;3.12;;;;;;;;;;4390193;32;20205;-56
2021/07/10 00:35:21;;;;;;;4.87;3.53;;;;;;;;;;4390327;32;20280;-57
2021/07/10 00:37:47;;;;;;;4.70;3.17;;;;;;;;;;4390077;32;20277;-56
2021/07/10 00:40:13;;;;;;;5.55;3.70;;;;;;;;;;4390357;32;20361;-56
2021/07/10 00:42:39;;;;;;;5.78;3.53;;;;;;;;;;4390071;32;20679;-55
2021/07/10 00:45:09;;;;;;;6.78;4.00;;;;;;;;;;4402243;32;20616;-55
2021/07/10 00:47:35;;;;;;;6.00;3.67;;;;;;;;;;4405187;32;20252;-55
2021/07/10 00:50:05;;;;;;;3.92;3.22;;;;;;;;;;4405556;32;20423;-55
2021/07/10 00:52:31;;;;;;;8.23;4.07;;;;;;;;;;4405883;32;20201;-55
2021/07/10 00:54:56;;;;;;;5.62;3.90;;;;;;;;;;4405434;32;20635;-56
2021/07/10 00:57:22;;;;;;;5.15;3.78;;;;;;;;;;4405337;32;20281;-56
2021/07/10 00:59:47;;;;;;;9.75;4.07;;;;;;;;;;4404928;32;20229;-55
2021/07/10 01:02:13;;;;;;;6.72;3.53;;;;;;;;;;4405887;32;20304;-56
2021/07/10 01:04:39;;;;;;;3.83;3.40;;;;;;;;;;4405214;32;20217;-54
2021/07/10 01:07:04;;;;;;;4.70;3.70;;;;;;;;;;4391030;32;20323;-55
2021/07/10 01:09:31;;;;;;;7.68;3.80;;;;;;;;;;4404918;32;20259;-55
2021/07/10 01:11:57;;;;;;;6.35;3.70;;;;;;;;;;4404031;32;20225;-56
2021/07/10 01:14:23;;;;;;;4.60;3.60;;;;;;;;;;4404999;32;20230;-55
2021/07/10 01:16:48;;;;;;;4.65;3.33;;;;;;;;;;4405192;32;20276;-55
2021/07/10 01:19:23;;;;;;;7.47;3.75;;;;;;;;;;4389611;32;20261;-55
2021/07/10 01:21:49;;;;;;;3.60;3.30;;;;;;;;;;4389550;32;20216;-55
2021/07/10 01:24:14;;;;;;;5.97;4.28;;;;;;;;;;4389575;32;20260;-55
2021/07/10 01:26:40;;;;;;;9.73;4.00;;;;;;;;;;4389902;32;20334;-57
2021/07/10 01:29:06;;;;;;;5.40;3.95;;;;;;;;;;4389415;32;20275;-55
2021/07/10 01:31:31;;;;;;;5.43;4.05;;;;;;;;;;4395679;32;20345;-57
2021/07/10 01:34:00;;;;;;;4.12;3.60;;;;;;;;;;4404476;32;20324;-56
2021/07/10 01:36:27;;;;;;;5.40;4.10;;;;;;;;;;4404640;32;20235;-55
2021/07/10 01:38:53;;;;;;;8.63;3.53;;;;;;;;;;4404282;32;20297;-55
2021/07/10 01:41:18;;;;;;;12.88;3.83;;;;;;;;;;4404540;32;20284;-55
2021/07/10 01:43:44;;;;;;;4.78;3.80;;;;;;;;;;4403185;32;20253;-56
2021/07/10 01:46:09;;;;;;;5.15;3.67;;;;;;;;;;4404718;32;20300;-56
2021/07/10 01:48:35;;;;;;;5.10;4.50;;;;;;;;;;4404232;32;20249;-55
2021/07/10 01:51:00;;;;;;;3.95;3.60;;;;;;;;;;4404875;32;20735;-55
2021/07/10 01:53:26;;;;;;;5.65;3.95;;;;;;;;;;4404596;32;20222;-55
2021/07/10 01:55:51;;;;;;;6.25;3.80;;;;;;;;;;4404355;32;20288;-57
2021/07/10 01:58:17;;;;;;;4.75;3.40;;;;;;;;;;4404209;32;20260;-55
2021/07/10 02:00:44;;;;;;;5.20;3.40;;;;;;;;;;4404569;32;20284;-55
2021/07/10 02:03:11;;;;;;;9.10;4.18;;;;;;;;;;4404191;32;20260;-56
2021/07/10 02:05:37;;;;;;;6.47;3.95;;;;;;;;;;4404377;32;20586;-57
2021/07/10 02:08:03;;;;;;;4.00;3.55;;;;;;;;;;4403921;32;20233;-55
2021/07/10 02:10:30;;;;;;;8.23;4.25;;;;;;;;;;4404151;32;20781;-56
2021/07/10 02:13:08;;;;;;;4.95;3.40;;;;;;;;;;4403736;32;20239;-56
2021/07/10 02:15:34;;;;;;;5.28;4.37;;;;;;;;;;4404545;32;20260;-55
2021/07/10 02:17:59;;;;;;;5.78;4.32;;;;;;;;;;4403796;32;20277;-56
2021/07/10 02:20:26;;;;;;;4.37;3.95;;;;;;;;;;4403186;32;20510;-57
2021/07/10 02:22:53;;;;;;;6.15;4.03;;;;;;;;;;4403348;32;20221;-55
2021/07/10 02:25:21;;;;;;;4.57;3.40;;;;;;;;;;4404182;32;20205;-56
2021/07/10 02:27:47;;;;;;;5.57;3.62;;;;;;;;;;4403849;32;20270;-55
2021/07/10 02:30:16;;;;;;;6.97;3.95;;;;;;;;;;4404124;32;20342;-56
2021/07/10 02:32:42;;;;;;;4.50;3.25;;;;;;;;;;4401982;32;20249;-55
2021/07/10 02:35:09;;;;;;;6.45;4.25;;;;;;;;;;4404451;32;20252;-55
2021/07/10 02:37:35;;;;;;;5.95;3.75;;;;;;;;;;4403743;32;20225;-56
2021/07/10 02:40:06;;;;;;;5.65;3.30;;;;;;;;;;4402966;32;20588;-55
2021/07/10 02:42:31;;;;;;;5.10;3.30;;;;;;;;;;4404388;32;20550;-54
2021/07/10 02:44:58;;;;;;;5.20;3.70;;;;;;;;;;4404237;32;20214;-55
2021/07/10 02:47:24;;;;;;;8.93;3.42;;;;;;;;;;4403931;32;20279;-54
2021/07/10 02:49:49;;;;;;;4.00;3.12;;;;;;;;;;4403982;32;20736;-55
2021/07/10 02:52:15;;;;;;;8.85;4.62;;;;;;;;;;4404089;32;20284;-54
2021/07/10 02:54:40;;;;;;;8.95;4.53;;;;;;;;;;4404197;32;20251;-55
2021/07/10 02:57:06;;;;;;;18.08;10.32;;;;;;;;;;4403571;32;20284;-55
2021/07/10 02:59:31;;;;;;;13.05;8.35;;;;;;;;;;4403870;32;20350;-55
2021/07/10 03:01:56;;;;;;;14.45;7.65;;;;;;;;;;4402560;32;20385;-56
2021/07/10 03:04:22;;;;;;;13.10;7.78;;;;;;;;;;4404030;32;20248;-55
2021/07/10 03:06:48;;;;;;;12.52;10.18;;;;;;;;;;4403748;32;20577;-55
2021/07/10 03:09:13;;;;;;;19.65;8.07;;;;;;;;;;4403968;32;20334;-54
2021/07/10 03:11:39;;;;;;;14.75;9.70;;;;;;;;;;4403825;32;20314;-56
2021/07/10 03:14:04;;;;;;;11.30;7.50;;;;;;;;;;4403755;32;20277;-56
2021/07/10 03:16:30;;;;;;;15.10;11.18;;;;;;;;;;4404178;32;20693;-57
2021/07/10 03:18:55;;;;;;;27.08;18.90;;;;;;;;;;4390632;32;20554;-55
2021/07/10 03:21:21;;;;;;;26.33;17.40;;;;;;;;;;4388791;32;20299;-55
2021/07/10 03:23:46;;;;;;;10.60;7.43;;;;;;;;;;4388504;32;20250;-55
2021/07/10 03:26:12;;;;;;;12.30;8.32;;;;;;;;;;4388565;32;20338;-55
2021/07/10 03:28:37;;;;;;;13.77;10.80;;;;;;;;;;4388520;32;20238;-56
2021/07/10 03:31:02;;;;;;;17.05;9.38;;;;;;;;;;4391531;32;20678;-54
2021/07/10 03:33:34;;;;;;;18.80;10.63;;;;;;;;;;4403383;32;20807;-55
2021/07/10 03:35:59;;;;;;;14.90;9.43;;;;;;;;;;4406237;32;20232;-55
2021/07/10 03:38:25;;;;;;;16.67;7.97;;;;;;;;;;4406406;32;20561;-54
2021/07/10 03:40:50;;;;;;;14.45;8.25;;;;;;;;;;4406589;32;20281;-55
2021/07/10 03:43:16;;;;;;;8.98;6.93;;;;;;;;;;4405156;32;20288;-56
2021/07/10 03:45:41;;;;;;;9.48;6.47;;;;;;;;;;4406293;32;20288;-55
2021/07/10 03:48:07;;;;;;;8.27;5.53;;;;;;;;;;4406090;32;20201;-56
2021/07/10 03:50:33;;;;;;;11.07;6.25;;;;;;;;;;4406519;32;20300;-56
2021/07/10 03:52:58;;;;;;;16.85;7.47;;;;;;;;;;4406101;32;20590;-56
2021/07/10 03:55:24;;;;;;;12.23;6.78;;;;;;;;;;4406429;32;20707;-55
2021/07/10 03:57:49;;;;;;;13.23;7.85;;;;;;;;;;4405869;32;20671;-57
2021/07/10 04:00:18;;;;;;;10.63;7.15;;;;;;;;;;4406270;32;20801;-55
2021/07/10 04:02:44;;;;;;;9.63;6.65;;;;;;;;;;4406305;32;20276;-55
2021/07/10 04:05:10;;;;;;;11.02;7.30;;;;;;;;;;4405439;32;20308;-58
2021/07/10 04:07:37;;;;;;;6.95;4.97;;;;;;;;;;4406089;32;20711;-55
2021/07/10 04:10:05;;;;;;;5.03;4.37;;;;;;;;;;4406590;32;20293;-55
2021/07/10 04:12:30;;;;;;;5.53;3.85;;;;;;;;;;4406281;32;20250;-55
2021/07/10 04:15:00;;;;;;;8.60;5.12;;;;;;;;;;4405996;32;20657;-55
2021/07/10 04:17:32;;;;;;;6.00;4.18;;;;;;;;;;4405756;32;20225;-56
2021/07/10 04:19:59;;;;;;;6.32;3.95;;;;;;;;;;4406442;32;20607;-56
2021/07/10 04:22:25;;;;;;;4.57;4.05;;;;;;;;;;4406135;32;20622;-56
2021/07/10 04:24:51;;;;;;;5.00;4.45;;;;;;;;;;4406296;32;20221;-56
2021/07/10 04:27:17;;;;;;;10.07;4.95;;;;;;;;;;4406249;32;20204;-57
2021/07/10 04:29:44;;;;;;;6.53;4.80;;;;;;;;;;4395688;32;20240;-56
2021/07/10 04:32:11;;;;;;;10.43;5.53;;;;;;;;;;4402435;32;20242;-55
2021/07/10 04:34:37;;;;;;;6.95;4.55;;;;;;;;;;4405706;32;20213;-56
2021/07/10 04:37:02;;;;;;;6.75;4.87;;;;;;;;;;4405958;32;20725;-56
2021/07/10 04:39:28;;;;;;;5.90;4.45;;;;;;;;;;4405617;32;20233;-55
2021/07/10 04:41:53;;;;;;;7.75;4.80;;;;;;;;;;4405900;32;20319;-56
2021/07/10 04:44:19;;;;;;;7.57;4.95;;;;;;;;;;4405728;32;20220;-54
2021/07/10 04:46:44;;;;;;;15.43;5.62;;;;;;;;;;4405309;32;20269;-55
2021/07/10 04:49:10;;;;;;;16.40;4.82;;;;;;;;;;4405716;32;20221;-55
2021/07/10 04:51:36;;;;;;;13.20;5.28;;;;;;;;;;4405807;32;20210;-56
2021/07/10 04:54:02;;;;;;;5.40;4.87;;;;;;;;;;4405574;32;20290;-55
2021/07/10 04:56:27;;;;;;;5.95;5.03;;;;;;;;;;4405858;32;20347;-56
2021/07/10 04:58:52;;;;;;;9.50;4.12;;;;;;;;;;4405049;32;20475;-55
2021/07/10 05:01:18;;;;;;;9.55;4.85;;;;;;;;;;4405089;32;20280;-55
2021/07/10 05:03:43;;;;;;;5.15;4.65;;;;;;;;;;4402734;32;20300;-55
2021/07/10 05:06:10;;;;;;;6.32;4.35;;;;;;;;;;4400889;32;20834;-56
2021/07/10 05:08:35;;;;;;;6.45;4.65;;;;;;;;;;4405123;32;20229;-55
2021/07/10 05:11:02;;;;;;;7.10;4.85;;;;;;;;;;4403782;32;20316;-57
2021/07/10 05:13:27;;;;;;;7.05;4.75;;;;;;;;;;4405507;32;20350;-55
2021/07/10 05:15:53;;;;;;;6.07;4.80;;;;;;;;;;4405096;32;20273;-55
2021/07/10 05:18:19;;;;;;;6.25;4.82;;;;;;;;;;4395836;32;20650;-55
2021/07/10 05:20:46;;;;;;;6.20;4.68;;;;;;;;;;4390387;32;20243;-56
2021/07/10 05:23:12;;;;;;;7.85;5.07;;;;;;;;;;4390076;32;20673;-55
2021/07/10 05:25:37;;;;;;;7.53;4.93;;;;;;;;;;4390297;32;20269;-55
2021/07/10 05:28:03;;;;;;;8.88;5.53;;;;;;;;;;4390145;32;20327;-55
2021/07/10 05:30:29;;;;;;;6.32;5.03;;;;;;;;;;4391122;32;20315;-55
2021/07/10 05:32:54;;;;;;;5.25;4.22;;;;;;;;;;4404905;32;20507;-56
2021/07/10 05:35:22;;;;;;;7.82;5.62;;;;;;;;;;4405604;32;20264;-55
2021/07/10 05:37:48;;;;;;;5.90;5.15;;;;;;;;;;4404749;32;20237;-55
2021/07/10 05:40:14;;;;;;;7.43;5.45;;;;;;;;;;4404982;32;20736;-55
2021/07/10 05:42:40;;;;;;;5.43;4.32;;;;;;;;;;4405120;32;20299;-54
2021/07/10 05:45:06;;;;;;;6.55;4.85;;;;;;;;;;4405378;32;20266;-55
2021/07/10 05:47:32;;;;;;;14.93;5.45;;;;;;;;;;4404853;32;20311;-54
2021/07/10 05:49:57;;;;;;;8.93;6.53;;;;;;;;;;4405154;32;20550;-54
2021/07/10 05:52:22;;;;;;;8.68;6.68;;;;;;;;;;4403519;32;20328;-54
2021/07/10 05:54:48;;;;;;;11.48;6.03;;;;;;;;;;4404743;32;20649;-55
2021/07/10 05:57:13;;;;;;;11.10;6.32;;;;;;;;;;4404619;32;20766;-56
2021/07/10 05:59:39;;;;;;;12.23;6.03;;;;;;;;;;4401483;32;20281;-56
2021/07/10 06:02:06;;;;;;;13.27;6.60;;;;;;;;;;4405517;32;20291;-55
2021/07/10 06:04:33;;;;;;;8.43;6.12;;;;;;;;;;4404823;32;20229;-55
2021/07/10 06:06:59;;;;;;;10.10;5.72;;;;;;;;;;4403238;32;20248;-55
2021/07/10 06:09:24;;;;;;;9.07;6.03;;;;;;;;;;4404470;32;20242;-54
2021/07/10 06:11:49;;;;;;;6.97;5.00;;;;;;;;;;4404679;32;20699;-55
2021/07/10 06:14:15;;;;;;;8.35;5.37;;;;;;;;;;4404093;32;20212;-56
2021/07/10 06:16:40;;;;;;;8.20;5.60;;;;;;;;;;4404969;32;20261;-56
2021/07/10 06:19:06;;;;;;;5.70;5.00;;;;;;;;;;4403951;32;20302;-55
2021/07/10 06:21:31;;;;;;;5.93;4.65;;;;;;;;;;4398714;32;20289;-55
2021/07/10 06:23:57;;;;;;;6.32;4.62;;;;;;;;;;4389019;32;20674;-55
2021/07/10 06:26:23;;;;;;;9.27;5.18;;;;;;;;;;4389409;32;20272;-56
2021/07/10 06:28:50;;;;;;;7.05;4.90;;;;;;;;;;4388973;32;20293;-55
2021/07/10 06:31:16;;;;;;;6.82;4.60;;;;;;;;;;4394949;32;20213;-56
2021/07/10 06:33:42;;;;;;;6.30;5.00;;;;;;;;;;4404482;32;20229;-55
2021/07/10 06:36:08;;;;;;;5.72;4.12;;;;;;;;;;4404443;32;20307;-55
2021/07/10 06:38:33;;;;;;;6.53;4.40;;;;;;;;;;4404649;32;20323;-55
2021/07/10 06:40:59;;;;;;;7.65;4.93;;;;;;;;;;4403016;32;20338;-55
2021/07/10 06:43:24;;;;;;;6.32;4.50;;;;;;;;;;4404309;32;20267;-55
2021/07/10 06:45:50;;;;;;;11.73;5.50;;;;;;;;;;4403871;32;20408;-57
2021/07/10 06:48:15;;;;;;;8.88;4.75;;;;;;;;;;4404011;32;20214;-55
2021/07/10 06:50:41;;;;;;;5.65;4.18;;;;;;;;;;4404384;32;20272;-55
2021/07/10 06:53:06;;;;;;;7.32;4.60;;;;;;;;;;4403914;32;20240;-55
2021/07/10 06:55:32;;;;;;;4.60;3.70;;;;;;;;;;4403874;32;20727;-56
2021/07/10 06:57:57;;;;;;;6.82;4.70;;;;;;;;;;4397640;32;20232;-56
2021/07/10 07:00:23;;;;;;;8.18;4.78;;;;;;;;;;4397896;32;20304;-56
2021/07/10 07:02:48;;;;;;;7.65;4.82;;;;;;;;;;4402768;32;20374;-56
2021/07/10 07:05:14;;;;;;;4.75;4.25;;;;;;;;;;4401352;32;20351;-56
2021/07/10 07:07:39;;;;;;;6.03;4.70;;;;;;;;;;4400766;32;20217;-56
2021/07/10 07:10:08;;;;;;;10.20;5.65;;;;;;;;;;4406147;32;20315;-56
2021/07/10 07:12:33;;;;;;;7.10;5.12;;;;;;;;;;4406528;32;20213;-56
2021/07/10 07:14:59;;;;;;;8.95;5.43;;;;;;;;;;4399218;32;20306;-56
2021/07/10 07:17:24;;;;;;;8.90;5.60;;;;;;;;;;4395557;32;20338;-56
2021/07/10 07:19:50;;;;;;;10.40;5.10;;;;;;;;;;4403152;32;20243;-56
2021/07/10 07:22:15;;;;;;;10.95;5.25;;;;;;;;;;4404969;32;20228;-55
2021/07/10 07:24:41;;;;;;;12.95;5.75;;;;;;;;;;4405160;32;20225;-55
2021/07/10 07:27:06;;;;;;;10.93;5.85;;;;;;;;;;4406359;32;20310;-55
2021/07/10 07:29:32;;;;;;;12.73;5.47;;;;;;;;;;4406499;32;20273;-56
2021/07/10 07:31:57;;;;;;;13.13;5.53;;;;;;;;;;4402319;32;20287;-55
2021/07/10 07:34:23;;;;;;;10.07;4.82;;;;;;;;;;4404229;32;20297;-56
2021/07/10 07:36:48;;;;;;;15.00;5.15;;;;;;;;;;4405534;32;20289;-55
2021/07/10 07:39:15;;;;;;;6.80;4.37;;;;;;;;;;4404747;32;20248;-56
2021/07/10 07:41:41;;;;;;;7.45;4.72;;;;;;;;;;4405728;32;20288;-56
2021/07/10 07:44:06;;;;;;;15.43;4.82;;;;;;;;;;4404971;32;20261;-56
2021/07/10 07:46:33;;;;;;;7.68;4.75;;;;;;;;;;4406180;32;20272;-57
2021/07/10 07:48:59;;;;;;;11.18;5.25;;;;;;;;;;4398409;32;20279;-55
2021/07/10 07:51:24;;;;;;;7.40;5.47;;;;;;;;;;4399590;32;20296;-56
2021/07/10 07:53:50;;;;;;;6.50;4.22;;;;;;;;;;4405203;32;20210;-55
2021/07/10 07:56:16;;;;;;;9.60;5.35;;;;;;;;;;4404568;32;20280;-55
2021/07/10 07:58:41;;;;;;;10.30;4.80;;;;;;;;;;4404927;32;20221;-56
2021/07/10 08:01:08;;;;;;;6.93;5.22;;;;;;;;;;4405275;32;20353;-56
2021/07/10 08:03:34;;;;;;;5.62;4.12;;;;;;;;;;4405461;32;20403;-56
2021/07/10 08:06:00;;;;;;;7.00;4.85;;;;;;;;;;4396086;32;20230;-56
2021/07/10 08:08:25;;;;;;;10.93;6.05;;;;;;;;;;4397521;32;20704;-55
2021/07/10 08:10:51;;;;;;;10.15;4.70;;;;;;;;;;4394360;32;20716;-55
2021/07/10 08:13:16;;;;;;;9.23;5.78;;;;;;;;;;4400763;32;20600;-56
2021/07/10 08:15:42;;;;;;;11.12;6.07;;;;;;;;;;4393023;32;20324;-55
2021/07/10 08:18:07;;;;;;;8.15;4.78;;;;;;;;;;4397818;32;20257;-55
2021/07/10 08:20:33;;;;;;;9.18;5.03;;;;;;;;;;4400766;32;20322;-56
2021/07/10 08:22:59;;;;;;;6.22;4.68;;;;;;;;;;4399593;32;20548;-57
2021/07/10 08:25:25;;;;;;;7.82;5.00;;;;;;;;;;4400621;32;20312;-55
2021/07/10 08:27:51;;;;;;;4.97;4.00;;;;;;;;;;4397887;32;20600;-56
2021/07/10 08:30:18;;;;;;;6.70;3.83;;;;;;;;;;4401717;32;20237;-55
2021/07/10 08:32:46;;;;;;;10.32;5.60;;;;;;;;;;4401320;32;20522;-55
2021/07/10 08:35:12;;;;;;;4.85;3.80;;;;;;;;;;4405516;32;20241;-56
2021/07/10 08:37:38;;;;;;;5.82;4.10;;;;;;;;;;4405290;32;20267;-56
2021/07/10 08:40:05;;;;;;;6.12;4.95;;;;;;;;;;4405223;32;20308;-56
2021/07/10 08:42:31;;;;;;;5.25;4.60;;;;;;;;;;4405282;32;20234;-56
2021/07/10 08:45:00;;;;;;;7.50;4.60;;;;;;;;;;4405454;32;20290;-57
2021/07/10 08:47:26;;;;;;;7.22;5.78;;;;;;;;;;4404353;32;20249;-57
2021/07/10 08:49:52;;;;;;;6.43;5.07;;;;;;;;;;4404344;32;20246;-56
2021/07/10 08:52:17;;;;;;;9.13;4.47;;;;;;;;;;4404715;32;20315;-58
2021/07/10 08:54:43;;;;;;;12.82;4.28;;;;;;;;;;4401996;32;20385;-55
2021/07/10 08:57:11;;;;;;;18.67;4.80;;;;;;;;;;4403141;32;20276;-56
2021/07/10 08:59:36;;;;;;;11.93;4.57;;;;;;;;;;4403646;32;20240;-55
2021/07/10 09:02:02;;;;;;;7.65;4.93;;;;;;;;;;4402379;32;20311;-56
2021/07/10 09:04:28;;;;;;;6.25;4.97;;;;;;;;;;4403220;32;20273;-56
2021/07/10 09:06:53;;;;;;;5.47;4.82;;;;;;;;;;4403482;32;20687;-57
2021/07/10 09:09:19;;;;;;;9.27;4.28;;;;;;;;;;4402106;32;20448;-56
2021/07/10 09:12:01;;;;;;;7.07;4.80;;;;;;;;;;4403635;32;20814;-57
2021/07/10 09:14:31;;;;;;;5.37;4.12;;;;;;;;;;4404486;32;20229;-56
2021/07/10 09:17:13;;;;;;;5.30;3.95;;;;;;;;;;4402092;32;20561;-56
2021/07/10 09:19:39;;;;;;;6.05;4.80;;;;;;;;;;4389804;32;20241;-56
2021/07/10 09:22:04;;;;;;;7.28;4.72;;;;;;;;;;4389245;32;20289;-56
2021/07/10 09:24:33;;;;;;;5.50;4.07;;;;;;;;;;4389118;32;20221;-57
2021/07/10 09:27:04;;;;;;;4.72;3.80;;;;;;;;;;4388987;32;20392;-56
2021/07/10 09:29:35;;;;;;;4.53;4.12;;;;;;;;;;4395441;32;20295;-56
2021/07/10 09:32:04;;;;;;;4.22;3.83;;;;;;;;;;4402003;32;20307;-56
2021/07/10 09:34:39;;;;;;;4.75;4.20;;;;;;;;;;4404486;32;20357;-56
2021/07/10 09:37:11;;;;;;;11.02;4.72;;;;;;;;;;4403718;32;20304;-56
2021/07/10 09:39:45;;;;;;;4.75;3.87;;;;;;;;;;4404313;32;20217;-56
2021/07/10 09:42:11;;;;;;;5.93;4.35;;;;;;;;;;4404655;32;20197;-57
2021/07/10 09:44:48;;;;;;;3.72;3.42;;;;;;;;;;4404121;32;20241;-56
2021/07/10 09:47:16;;;;;;;7.25;3.80;;;;;;;;;;4397673;32;20294;-56
2021/07/10 09:49:43;;;;;;;6.28;4.35;;;;;;;;;;4404161;32;20245;-57
2021/07/10 09:52:10;;;;;;;6.53;4.50;;;;;;;;;;4404180;32;20229;-58
2021/07/10 09:54:42;;;;;;;6.00;3.75;;;;;;;;;;4403588;32;20276;-57
2021/07/10 09:57:14;;;;;;;9.38;4.47;;;;;;;;;;4404207;32;20197;-58
2021/07/10 09:59:43;;;;;;;5.07;3.87;;;;;;;;;;4403785;32;20306;-57
2021/07/10 10:02:11;;;;;;;7.45;4.40;;;;;;;;;;4403851;32;20210;-57
2021/07/10 10:04:37;;;;;;;5.10;4.22;;;;;;;;;;4404016;32;20271;-56
2021/07/10 10:07:09;;;;;;;6.82;3.85;;;;;;;;;;4403726;32;20230;-56
2021/07/10 10:09:35;;;;;;;8.30;4.50;;;;;;;;;;4404197;32;20319;-57
2021/07/10 10:12:03;;;;;;;4.40;3.55;;;;;;;;;;4403166;32;20284;-56
2021/07/10 10:14:32;;;;;;;4.80;4.07;;;;;;;;;;4403794;32;20292;-56
2021/07/10 10:16:59;;;;;;;5.60;4.20;;;;;;;;;;4403286;32;20209;-56
2021/07/10 10:19:28;;;;;;;5.62;4.30;;;;;;;;;;4402253;32;20260;-57
2021/07/10 10:21:56;;;;;;;4.43;3.78;;;;;;;;;;4403998;32;20229;-56
2021/07/10 10:24:24;;;;;;;6.97;3.95;;;;;;;;;;4403454;32;20305;-57
2021/07/10 10:26:50;;;;;;;6.35;4.12;;;;;;;;;;4402682;32;20696;-57
2021/07/10 10:29:18;;;;;;;6.28;4.35;;;;;;;;;;4403917;32;20570;-56
2021/07/10 10:31:45;;;;;;;5.62;4.07;;;;;;;;;;4402019;32;20298;-56
2021/07/10 10:34:11;;;;;;;11.18;3.72;;;;;;;;;;4402909;32;20229;-58
2021/07/10 10:36:39;;;;;;;4.75;3.45;;;;;;;;;;4404439;32;20310;-56
2021/07/10 10:39:11;;;;;;;6.10;3.78;;;;;;;;;;4401661;32;20308;-56
2021/07/10 10:41:43;;;;;;;3.92;3.50;;;;;;;;;;4402256;32;20285;-56
2021/07/10 10:44:09;;;;;;;5.03;4.45;;;;;;;;;;4405090;32;20286;-56
2021/07/10 10:46:55;;;;;;;4.82;4.03;;;;;;;;;;4406761;32;20248;-56
2021/07/10 10:49:42;;;;;;;5.00;3.65;;;;;;;;;;4406774;32;20236;-56
2021/07/10 10:52:27;;;;;;;4.68;3.78;;;;;;;;;;4406661;32;20531;-55
2021/07/10 10:54:52;;;;;;;6.50;3.83;;;;;;;;;;4406299;32;20221;-56
2021/07/10 10:57:30;;;;;;;4.07;3.67;;;;;;;;;;4406670;32;20331;-56
2021/07/10 10:59:56;;;;;;;5.37;3.65;;;;;;;;;;4406006;32;20627;-56
2021/07/10 11:02:27;;;;;;;6.20;4.10;;;;;;;;;;4405490;32;20281;-56
2021/07/10 11:04:56;;;;;;;4.15;3.12;;;;;;;;;;4405929;32;20261;-56
2021/07/10 11:07:22;;;;;;;4.53;3.20;;;;;;;;;;4405427;32;20235;-56
2021/07/10 11:10:03;;;;;;;7.00;2.87;;;;;;;;;;4405575;32;20653;-56
2021/07/10 11:12:47;;;;;;;3.90;3.20;;;;;;;;;;4406245;32;20285;-56
2021/07/10 11:15:25;;;;;;;3.47;3.17;;;;;;;;;;4403218;32;20346;-57
2021/07/10 11:17:58;;;;;;;5.37;4.03;;;;;;;;;;4399083;32;20253;-56
2021/07/10 11:20:47;;;;;;;3.85;3.45;;;;;;;;;;4404757;32;20220;-57
2021/07/10 11:23:28;;;;;;;7.45;4.15;;;;;;;;;;4397237;32;20209;-57
2021/07/10 11:25:58;;;;;;;3.65;3.28;;;;;;;;;;4399507;32;20320;-56
2021/07/10 11:28:26;;;;;;;5.20;3.45;;;;;;;;;;4396291;32;20261;-57
2021/07/10 11:30:57;;;;;;;3.22;2.87;;;;;;;;;;4402955;32;20323;-56
2021/07/10 11:34:00;;;;;;;6.10;3.28;;;;;;;;;;4404186;32;20233;-56
2021/07/10 11:36:35;;;;;;;3.60;3.20;;;;;;;;;;4402618;32;20257;-56
2021/07/10 11:39:04;;;;;;;5.05;2.85;;;;;;;;;;4404172;32;20297;-56
2021/07/10 11:41:31;;;;;;;7.22;3.78;;;;;;;;;;4404739;32;20223;-57
2021/07/10 11:44:14;;;;;;;3.28;2.97;;;;;;;;;;4397165;32;20252;-56
2021/07/10 11:46:55;;;;;;;3.47;2.62;;;;;;;;;;4389992;32;20295;-56
2021/07/10 11:49:36;;;;;;;4.68;2.83;;;;;;;;;;4389522;32;20250;-57
2021/07/10 11:52:04;;;;;;;5.93;3.20;;;;;;;;;;4401794;32;20264;-57
2021/07/10 11:54:30;;;;;;;3.12;2.83;;;;;;;;;;4401317;32;20246;-57
2021/07/10 11:56:56;;;;;;;4.05;3.08;;;;;;;;;;4403564;32;20298;-57
2021/07/10 11:59:23;;;;;;;3.62;2.53;;;;;;;;;;4403992;32;20272;-57
2021/07/10 12:01:48;;;;;;;3.90;2.75;;;;;;;;;;4403097;32;20210;-57
2021/07/10 12:04:14;;;;;;;5.82;3.10;;;;;;;;;;4404752;32;20692;-56
2021/07/10 12:06:39;;;;;;;3.08;2.55;;;;;;;;;;4404983;32;20284;-56
2021/07/10 12:09:05;;;;;;;2.55;2.08;;;;;;;;;;4403281;32;20310;-57
2021/07/10 12:11:31;;;;;;;3.42;2.62;;;;;;;;;;4405471;32;20341;-57
2021/07/10 12:14:04;;;;;;;6.15;2.70;;;;;;;;;;4404585;32;20249;-56
2021/07/10 12:16:30;;;;;;;17.52;4.05;;;;;;;;;;4404438;32;20252;-57
2021/07/10 12:18:55;;;;;;;2.58;2.33;;;;;;;;;;4402054;32;20609;-56
2021/07/10 12:21:21;;;;;;;3.37;2.92;;;;;;;;;;4404071;32;20640;-57
2021/07/10 12:23:47;;;;;;;3.90;2.25;;;;;;;;;;4402915;32;20280;-57
2021/07/10 12:26:15;;;;;;;5.53;3.15;;;;;;;;;;4403510;32;20320;-57
2021/07/10 12:28:41;;;;;;;5.28;2.80;;;;;;;;;;4403814;32;20295;-57
2021/07/10 12:31:13;;;;;;;4.90;3.45;;;;;;;;;;4403520;32;20248;-56
2021/07/10 12:33:41;;;;;;;3.12;2.17;;;;;;;;;;4404228;32;20670;-57
2021/07/10 12:36:13;;;;;;;4.57;2.47;;;;;;;;;;4402603;32;20229;-56
2021/07/10 12:38:55;;;;;;;5.60;3.70;;;;;;;;;;4394960;32;20221;-58
2021/07/10 12:41:37;;;;;;;2.80;2.42;;;;;;;;;;4402363;32;20322;-58
2021/07/10 12:44:16;;;;;;;4.60;2.10;;;;;;;;;;4391786;32;20218;-58
2021/07/10 12:46:57;;;;;;;2.40;2.20;;;;;;;;;;4389290;32;20374;-57
2021/07/10 12:49:26;;;;;;;2.83;2.10;;;;;;;;;;4392202;32;20301;-57
2021/07/10 12:51:52;;;;;;;8.68;2.22;;;;;;;;;;4403394;32;20633;-58
2021/07/10 12:54:30;;;;;;;2.37;2.00;;;;;;;;;;4402647;32;20230;-58
2021/07/10 12:56:57;;;;;;;2.67;2.37;;;;;;;;;;4389646;32;20210;-58
2021/07/10 12:59:23;;;;;;;5.05;2.85;;;;;;;;;;4395926;32;20217;-57
2021/07/10 13:01:50;;;;;;;3.08;2.17;;;;;;;;;;4391505;32;20785;-58
2021/07/10 13:04:16;;;;;;;5.55;2.37;;;;;;;;;;4402917;32;20749;-57
2021/07/10 13:06:45;;;;;;;5.20;2.55;;;;;;;;;;4394205;32;20257;-57
2021/07/10 13:09:11;;;;;;;12.88;2.83;;;;;;;;;;4402219;32;20255;-57
2021/07/10 13:11:52;;;;;;;4.45;2.45;;;;;;;;;;4402275;32;20308;-58
2021/07/10 13:14:20;;;;;;;5.70;2.90;;;;;;;;;;4403249;32;20221;-57
2021/07/10 13:16:46;;;;;;;3.12;2.00;;;;;;;;;;4403011;32;20630;-58
2021/07/10 13:19:12;;;;;;;2.58;2.37;;;;;;;;;;4386554;32;20690;-58
2021/07/10 13:21:37;;;;;;;2.33;2.08;;;;;;;;;;4397470;32;20353;-57
2021/07/10 13:24:07;;;;;;;8.15;2.47;;;;;;;;;;4392810;32;20349;-56
2021/07/10 13:26:50;;;;;;;2.80;2.25;;;;;;;;;;4387945;32;20765;-57
2021/07/10 13:29:18;;;;;;;3.17;2.22;;;;;;;;;;4390744;32;20662;-57
2021/07/10 13:31:58;;;;;;;4.50;2.65;;;;;;;;;;4398221;32;20214;-58
2021/07/10 13:34:27;;;;;;;4.85;2.25;;;;;;;;;;4402471;32;20677;-56
2021/07/10 13:36:55;;;;;;;4.85;2.90;;;;;;;;;;4402998;32;20375;-57
2021/07/10 13:39:27;;;;;;;5.95;3.12;;;;;;;;;;4402556;32;20229;-56
2021/07/10 13:42:07;;;;;;;3.22;2.70;;;;;;;;;;4402440;32;20272;-58
2021/07/10 13:44:39;;;;;;;3.40;2.87;;;;;;;;;;4398759;32;20276;-57
2021/07/10 13:47:07;;;;;;;2.72;2.28;;;;;;;;;;4401473;32;20393;-56
2021/07/10 13:49:48;;;;;;;3.67;2.58;;;;;;;;;;4402487;32;20232;-57
2021/07/10 13:52:13;;;;;;;4.07;2.33;;;;;;;;;;4402221;32;20356;-55
2021/07/10 13:54:45;;;;;;;4.82;2.58;;;;;;;;;;4401762;32;20306;-56
2021/07/10 13:57:22;;;;;;;2.67;2.20;;;;;;;;;;4395646;32;20269;-56
2021/07/10 14:00:06;;;;;;;5.78;2.50;;;;;;;;;;4393226;32;20290;-56
2021/07/10 14:02:34;;;;;;;2.92;1.92;;;;;;;;;;4396009;32;20437;-58
2021/07/10 14:05:21;;;;;;;2.80;2.03;;;;;;;;;;4394053;32;20262;-56
2021/07/10 14:08:00;;;;;;;2.12;1.80;;;;;;;;;;4394953;32;20642;-56
2021/07/10 14:10:29;;;;;;;4.53;2.53;;;;;;;;;;4398265;32;20545;-57
2021/07/10 14:12:58;;;;;;;3.10;2.17;;;;;;;;;;4396579;32;20614;-57
2021/07/10 14:15:24;;;;;;;1.95;1.75;;;;;;;;;;4400467;32;20365;-57
2021/07/10 14:17:51;;;;;;;3.45;2.62;;;;;;;;;;4395395;32;20297;-58
2021/07/10 14:20:18;;;;;;;5.28;2.35;;;;;;;;;;4398954;32;20558;-58
2021/07/10 14:22:44;;;;;;;2.78;2.58;;;;;;;;;;4400416;32;20245;-56
2021/07/10 14:25:13;;;;;;;6.32;2.42;;;;;;;;;;4402105;32;20242;-56
2021/07/10 14:27:39;;;;;;;4.55;2.80;;;;;;;;;;4401480;32;20440;-58
2021/07/10 14:30:07;;;;;;;2.85;2.22;;;;;;;;;;4400722;32;20299;-58
2021/07/10 14:32:33;;;;;;;3.17;2.55;;;;;;;;;;4389432;32;20236;-58
2021/07/10 14:34:58;;;;;;;2.53;1.90;;;;;;;;;;4385848;32;20244;-57
2021/07/10 14:37:24;;;;;;;3.60;2.42;;;;;;;;;;4386849;32;20784;-56
2021/07/10 14:39:49;;;;;;;6.97;2.60;;;;;;;;;;4388273;32;20382;-57
2021/07/10 14:42:15;;;;;;;4.85;2.72;;;;;;;;;;4400837;32;20306;-56
2021/07/10 14:44:41;;;;;;;4.10;2.67;;;;;;;;;;4401772;32;20233;-56